createdAt,value
2023-02-28T00:04:06.185Z,8.20
2023-02-28T00:09:07.518Z,7.40
2023-02-28T00:14:08.753Z,8.48
2023-02-28T00:19:10.197Z,7.00
2023-02-28T00:24:11.530Z,8.15
2023-02-28T00:29:12.774Z,7.63
2023-02-28T00:34:14.065Z,7.53
2023-02-28T00:39:15.636Z,7.45
2023-02-28T00:44:16.894Z,7.47
2023-02-28T00:49:18.538Z,7.60
2023-02-28T00:54:19.932Z,7.57
2023-02-28T00:59:21.298Z,8.18
2023-02-28T01:04:22.984Z,9.38
2023-02-28T01:09:24.410Z,7.50
2023-02-28T01:14:25.707Z,8.20
2023-02-28T01:19:27.033Z,8.00
2023-02-28T01:24:28.347Z,7.55
2023-02-28T01:29:29.592Z,7.45
2023-02-28T01:34:30.893Z,7.20
2023-02-28T01:39:32.164Z,6.78
2023-02-28T01:44:52.407Z,7.57
2023-02-28T01:49:53.851Z,8.02
2023-02-28T01:54:56.674Z,8.80
2023-02-28T02:00:00.102Z,7.10
2023-02-28T02:05:12.957Z,9.60
2023-02-28T02:10:18.468Z,7.17
2023-02-28T02:15:37.526Z,7.70
2023-02-28T02:20:57.527Z,7.97
2023-02-28T02:26:19.371Z,6.93
2023-02-28T02:31:41.157Z,8.48
2023-02-28T02:36:54.630Z,8.87
2023-02-28T02:41:59.223Z,7.95
2023-02-28T02:47:08.972Z,9.48
2023-02-28T02:52:11.835Z,8.00
2023-02-28T02:57:16.781Z,9.23
2023-02-28T03:02:18.729Z,7.50
2023-02-28T03:07:20.272Z,7.93
2023-02-28T03:12:21.587Z,8.43
2023-02-28T03:17:25.903Z,8.63
2023-02-28T03:22:51.913Z,10.52
2023-02-28T03:28:06.154Z,8.50
2023-02-28T03:33:10.327Z,8.18
2023-02-28T03:38:15.426Z,9.68
2023-02-28T03:43:20.660Z,9.87
2023-02-28T03:48:24.690Z,11.65
2023-02-28T03:53:34.874Z,10.80
2023-02-28T03:58:56.540Z,9.77
2023-02-28T04:03:57.990Z,9.18
2023-02-28T04:08:59.320Z,11.37
2023-02-28T04:14:00.611Z,8.32
2023-02-28T04:19:06.139Z,10.63
2023-02-28T04:24:09.631Z,7.70
2023-02-28T04:29:11.597Z,9.35
2023-02-28T04:34:12.907Z,11.00
2023-02-28T04:39:14.420Z,10.55
2023-02-28T04:44:16.303Z,9.80
2023-02-28T04:49:17.597Z,9.77
2023-02-28T04:54:19.023Z,9.55
2023-02-28T04:59:20.320Z,11.97
2023-02-28T05:04:21.728Z,11.70
2023-02-28T05:09:23.063Z,17.50
2023-02-28T05:14:24.446Z,11.85
2023-02-28T05:19:25.716Z,8.63
2023-02-28T05:24:27.033Z,10.27
2023-02-28T05:29:28.293Z,11.50
2023-02-28T05:34:29.645Z,10.87
2023-02-28T05:39:30.892Z,9.40
2023-02-28T05:44:32.144Z,8.88
2023-02-28T05:49:33.442Z,11.83
2023-02-28T05:54:34.973Z,8.50
2023-02-28T05:59:40.641Z,12.17
2023-02-28T06:04:42.525Z,13.85
2023-02-28T06:09:43.836Z,9.30
2023-02-28T06:14:45.154Z,8.93
2023-02-28T06:19:46.533Z,10.82
2023-02-28T06:24:47.820Z,13.53
2023-02-28T06:29:49.108Z,15.35
2023-02-28T06:34:51.349Z,13.63
2023-02-28T06:39:53.040Z,12.60
2023-02-28T06:44:54.364Z,10.10
2023-02-28T06:49:55.675Z,11.53
2023-02-28T06:55:01.204Z,9.98
2023-02-28T07:00:05.348Z,9.73
2023-02-28T07:05:07.114Z,11.23
2023-02-28T07:10:08.714Z,10.50
2023-02-28T07:15:10.247Z,9.33
2023-02-28T07:20:11.935Z,9.95
2023-02-28T07:25:13.268Z,12.73
2023-02-28T07:30:14.684Z,15.50
2023-02-28T07:35:20.117Z,10.48
2023-02-28T07:40:21.433Z,11.00
2023-02-28T07:45:23.020Z,15.40
2023-02-28T07:50:26.146Z,14.88
2023-02-28T07:55:28.500Z,13.40
2023-02-28T08:00:30.091Z,11.85
2023-02-28T08:05:31.894Z,9.30
2023-02-28T08:10:33.274Z,12.13
2023-02-28T08:15:34.561Z,10.82
2023-02-28T08:20:35.831Z,13.27
2023-02-28T08:25:37.375Z,11.27
2023-02-28T08:30:38.928Z,11.23
2023-02-28T08:35:40.240Z,11.48
2023-02-28T08:40:41.560Z,11.05
2023-02-28T08:45:42.963Z,15.33
2023-02-28T08:50:46.568Z,13.07
2023-02-28T08:55:58.401Z,13.60
2023-02-28T09:00:59.754Z,16.90
2023-02-28T09:06:01.864Z,11.85
2023-02-28T09:11:03.828Z,16.27
2023-02-28T09:16:06.336Z,13.20
2023-02-28T09:21:08.867Z,14.23
2023-02-28T09:26:15.102Z,14.20
2023-02-28T09:31:17.988Z,16.27
2023-02-28T09:36:19.464Z,14.67
2023-02-28T09:41:22.492Z,14.27
2023-02-28T09:46:29.060Z,13.60
2023-02-28T09:51:59.826Z,14.85
2023-02-28T09:57:16.470Z,12.50
2023-02-28T10:02:38.010Z,11.40
2023-02-28T10:07:59.896Z,14.75
2023-02-28T10:13:04.678Z,13.10
2023-02-28T10:18:09.320Z,12.45
2023-02-28T10:23:21.712Z,27.52
2023-02-28T10:28:23.020Z,15.57
2023-02-28T10:33:35.230Z,16.35
2023-02-28T10:38:38.041Z,13.20
2023-02-28T10:43:40.673Z,15.75
2023-02-28T10:48:44.180Z,12.40
2023-02-28T10:54:03.082Z,13.40
2023-02-28T10:59:23.100Z,16.27
2023-02-28T11:04:30.375Z,16.90
2023-02-28T11:09:35.802Z,13.63
2023-02-28T11:14:40.962Z,14.27
2023-02-28T11:19:46.243Z,12.50
2023-02-28T11:24:49.462Z,13.30
2023-02-28T11:29:50.750Z,14.17
2023-02-28T11:35:10.225Z,13.82
2023-02-28T11:40:15.933Z,13.60
2023-02-28T11:45:35.880Z,14.73
2023-02-28T11:50:40.097Z,15.00
2023-02-28T11:55:55.727Z,14.30
2023-02-28T12:01:10.036Z,14.98
2023-02-28T12:06:27.125Z,14.95
2023-02-28T12:11:47.143Z,18.30
2023-02-28T12:16:55.356Z,16.60
2023-02-28T12:22:10.623Z,13.93
2023-02-28T12:27:14.251Z,14.40
2023-02-28T12:32:15.618Z,19.70
2023-02-28T12:37:21.272Z,16.10
2023-02-28T12:42:29.435Z,17.08
2023-02-28T12:47:30.802Z,18.33
2023-02-28T12:52:47.114Z,18.70
2023-02-28T12:57:48.358Z,13.55
2023-02-28T13:03:01.978Z,15.67
2023-02-28T13:08:03.515Z,14.02
2023-02-28T13:13:05.040Z,19.90
2023-02-28T13:18:06.429Z,17.10
2023-02-28T13:23:27.629Z,16.50
2023-02-28T13:29:05.375Z,13.63
2023-02-28T13:34:12.899Z,16.90
2023-02-28T13:39:35.166Z,15.43
2023-02-28T13:44:56.523Z,13.65
2023-02-28T13:50:20.797Z,18.70
2023-02-28T13:55:27.607Z,15.17
2023-02-28T14:00:32.495Z,17.30
2023-02-28T14:05:34.583Z,18.63
2023-02-28T14:10:43.381Z,14.20
2023-02-28T14:15:47.088Z,19.08
2023-02-28T14:20:50.289Z,18.27
2023-02-28T14:25:54.830Z,15.30
2023-02-28T14:31:16.953Z,15.50
2023-02-28T14:36:21.395Z,16.65
2023-02-28T14:41:30.429Z,14.95
2023-02-28T14:46:38.030Z,16.40
2023-02-28T14:51:39.349Z,15.48
2023-02-28T14:56:41.078Z,16.23
2023-02-28T15:01:42.341Z,18.67
2023-02-28T15:06:43.652Z,17.25
2023-02-28T15:11:51.280Z,17.20
2023-02-28T15:16:57.181Z,15.27
2023-02-28T15:22:01.012Z,17.93
2023-02-28T15:27:04.770Z,15.45
2023-02-28T15:32:07.577Z,16.98
2023-02-28T15:37:27.589Z,15.17
2023-02-28T15:42:29.698Z,19.90
2023-02-28T15:47:31.417Z,16.83
2023-02-28T15:52:39.440Z,17.00
2023-02-28T15:57:41.730Z,18.02
2023-02-28T16:02:43.300Z,15.87
2023-02-28T16:07:44.932Z,17.52
2023-02-28T16:12:46.355Z,17.40
2023-02-28T16:17:47.658Z,19.98
2023-02-28T16:22:49.148Z,20.70
2023-02-28T16:27:54.591Z,22.70
2023-02-28T16:32:56.404Z,19.85
2023-02-28T16:37:57.742Z,17.53
2023-02-28T16:43:00.288Z,18.60
2023-02-28T16:48:01.762Z,21.05
2023-02-28T16:53:03.051Z,18.27
2023-02-28T16:58:04.642Z,21.33
2023-02-28T17:03:07.479Z,19.57
2023-02-28T17:08:09.744Z,16.17
2023-02-28T17:13:15.256Z,14.77
2023-02-28T17:18:19.745Z,16.03
2023-02-28T17:23:21.011Z,18.27
2023-02-28T17:28:22.931Z,19.60
2023-02-28T17:33:24.280Z,15.32
2023-02-28T17:38:25.587Z,17.80
2023-02-28T17:43:27.410Z,16.67
2023-02-28T17:48:29.007Z,27.60
2023-02-28T17:53:30.885Z,17.13
2023-02-28T17:58:32.181Z,18.65
2023-02-28T18:03:33.449Z,17.77
2023-02-28T18:08:36.143Z,21.80
2023-02-28T18:13:37.443Z,21.45
2023-02-28T18:18:38.740Z,22.77
2023-02-28T18:23:47.587Z,24.95
2023-02-28T18:28:48.883Z,45.45
2023-02-28T18:33:51.074Z,39.70
2023-02-28T18:38:52.582Z,28.88
2023-02-28T18:43:54.361Z,26.53
2023-02-28T18:48:55.916Z,28.20
2023-02-28T18:53:58.818Z,39.92
2023-02-28T18:59:00.110Z,28.53
2023-02-28T19:04:01.848Z,27.13
2023-02-28T19:09:03.827Z,24.53
2023-02-28T19:14:05.329Z,44.20
2023-02-28T19:19:06.689Z,24.65
2023-02-28T19:24:07.988Z,22.63
2023-02-28T19:29:09.274Z,32.47
2023-02-28T19:34:10.597Z,20.70
2023-02-28T19:39:11.892Z,19.88
2023-02-28T19:44:13.183Z,20.60
2023-02-28T19:49:14.446Z,19.67
2023-02-28T19:54:16.135Z,24.92
2023-02-28T19:59:22.001Z,68.07
2023-02-28T20:04:32.320Z,32.55
2023-02-28T20:09:33.750Z,28.80
2023-02-28T20:14:35.072Z,21.83
2023-02-28T20:19:36.373Z,25.83
2023-02-28T20:24:37.678Z,21.07
2023-02-28T20:29:40.309Z,21.02
2023-02-28T20:34:41.670Z,24.77
2023-02-28T20:39:42.939Z,29.90
2023-02-28T20:44:44.274Z,28.20
2023-02-28T20:49:45.517Z,27.20
2023-02-28T20:54:46.811Z,69.65
2023-02-28T20:59:48.097Z,43.38
2023-02-28T21:04:49.440Z,29.80
2023-02-28T21:09:50.730Z,24.10
2023-02-28T21:14:52.083Z,23.17
2023-02-28T21:19:53.376Z,27.75
2023-02-28T21:24:54.643Z,25.33
2023-02-28T21:29:55.888Z,26.73
2023-02-28T21:34:57.136Z,28.98
2023-02-28T21:39:58.392Z,23.27
2023-02-28T21:45:00.895Z,20.88
2023-02-28T21:50:02.187Z,24.83
2023-02-28T21:55:04.275Z,19.93
2023-02-28T22:00:06.793Z,19.70
2023-02-28T22:05:08.208Z,19.43
2023-02-28T22:10:09.969Z,23.85
2023-02-28T22:15:12.517Z,23.42
2023-02-28T22:20:13.791Z,24.00
2023-02-28T22:25:15.068Z,22.13
2023-02-28T22:30:16.681Z,22.77
2023-02-28T22:35:19.413Z,22.55
2023-02-28T22:40:20.704Z,22.98
2023-02-28T22:45:21.954Z,23.10
2023-02-28T22:50:23.212Z,22.10
2023-02-28T22:55:24.525Z,25.13
2023-02-28T23:00:25.780Z,23.00
2023-02-28T23:05:27.063Z,24.15
2023-02-28T23:10:28.358Z,27.80
2023-02-28T23:15:29.705Z,25.63
2023-02-28T23:20:31.925Z,28.87
2023-02-28T23:25:33.437Z,19.35
2023-02-28T23:30:36.674Z,19.13
2023-02-28T23:35:38.728Z,21.10
2023-02-28T23:40:40.963Z,20.50
2023-02-28T23:45:46.525Z,21.37
2023-02-28T23:50:48.090Z,21.50
2023-02-28T23:55:49.823Z,15.88
